sensor_id;sensor_type;location;lat;lon;timestamp;pressure;altitude;pressure_sealevel;temperature;humidity
76478;BME280;65309;49.790;18.972;2023-05-07T00:04:48;96835.91;;;9.88;92.63
76478;BME280;65309;49.790;18.972;2023-05-07T00:09:50;96831.41;;;9.90;92.74
76478;BME280;65309;49.790;18.972;2023-05-07T00:14:53;96833.06;;;9.97;92.16
76478;BME280;65309;49.790;18.972;2023-05-07T00:19:55;96830.56;;;9.84;92.15
76478;BME280;65309;49.790;18.972;2023-05-07T00:24:58;96831.16;;;9.64;93.78
76478;BME280;65309;49.790;18.972;2023-05-07T00:30:01;96842.88;;;9.59;94.34
76478;BME280;65309;49.790;18.972;2023-05-07T00:35:04;96831.88;;;9.50;93.44
76478;BME280;65309;49.790;18.972;2023-05-07T00:40:07;96835.28;;;9.45;93.37
76478;BME280;65309;49.790;18.972;2023-05-07T00:45:12;96832.56;;;9.36;94.50
76478;BME280;65309;49.790;18.972;2023-05-07T00:50:14;96837.81;;;9.34;94.61
76478;BME280;65309;49.790;18.972;2023-05-07T00:55:16;96838.75;;;9.31;93.81
76478;BME280;65309;49.790;18.972;2023-05-07T01:00:20;96833.56;;;9.24;94.53
76478;BME280;65309;49.790;18.972;2023-05-07T01:05:23;96846.56;;;9.33;93.16
76478;BME280;65309;49.790;18.972;2023-05-07T01:10:27;96845.28;;;9.43;92.45
76478;BME280;65309;49.790;18.972;2023-05-07T01:15:33;96845.03;;;9.55;92.00
76478;BME280;65309;49.790;18.972;2023-05-07T01:20:35;96842.75;;;9.54;93.42
76478;BME280;65309;49.790;18.972;2023-05-07T01:25:39;96846.78;;;9.44;91.90
76478;BME280;65309;49.790;18.972;2023-05-07T01:30:42;96846.63;;;9.47;92.64
76478;BME280;65309;49.790;18.972;2023-05-07T01:35:50;96842.22;;;9.41;92.48
76478;BME280;65309;49.790;18.972;2023-05-07T01:40:55;96844.25;;;9.31;93.01
76478;BME280;65309;49.790;18.972;2023-05-07T01:45:57;96836.97;;;9.19;94.60
76478;BME280;65309;49.790;18.972;2023-05-07T01:51:01;96848.72;;;9.05;94.27
76478;BME280;65309;49.790;18.972;2023-05-07T01:56:05;96852.09;;;9.00;92.36
76478;BME280;65309;49.790;18.972;2023-05-07T02:01:07;96842.78;;;8.97;92.86
76478;BME280;65309;49.790;18.972;2023-05-07T02:06:09;96856.59;;;8.88;93.76
76478;BME280;65309;49.790;18.972;2023-05-07T02:11:12;96848.19;;;8.83;94.43
76478;BME280;65309;49.790;18.972;2023-05-07T02:16:15;96852.75;;;8.86;94.25
76478;BME280;65309;49.790;18.972;2023-05-07T02:21:17;96844.16;;;8.93;93.47
76478;BME280;65309;49.790;18.972;2023-05-07T02:26:20;96848.44;;;8.94;92.59
76478;BME280;65309;49.790;18.972;2023-05-07T02:31:23;96845.16;;;8.81;94.57
76478;BME280;65309;49.790;18.972;2023-05-07T02:36:25;96846.41;;;8.70;93.26
76478;BME280;65309;49.790;18.972;2023-05-07T02:41:29;96842.72;;;8.64;94.41
76478;BME280;65309;49.790;18.972;2023-05-07T02:46:31;96837.31;;;8.79;92.43
76478;BME280;65309;49.790;18.972;2023-05-07T02:51:33;96844.69;;;8.73;93.08
76478;BME280;65309;49.790;18.972;2023-05-07T02:56:37;96843.84;;;8.58;94.08
76478;BME280;65309;49.790;18.972;2023-05-07T03:01:38;96852.50;;;8.74;93.27
76478;BME280;65309;49.790;18.972;2023-05-07T03:06:41;96844.56;;;8.76;93.29
76478;BME280;65309;49.790;18.972;2023-05-07T03:11:44;96851.75;;;8.74;94.21
76478;BME280;65309;49.790;18.972;2023-05-07T03:16:46;96857.94;;;8.60;95.09
76478;BME280;65309;49.790;18.972;2023-05-07T03:21:48;96862.06;;;8.55;95.00
76478;BME280;65309;49.790;18.972;2023-05-07T03:26:51;96869.88;;;8.57;95.18
76478;BME280;65309;49.790;18.972;2023-05-07T03:31:53;96869.28;;;8.44;95.37
76478;BME280;65309;49.790;18.972;2023-05-07T03:36:56;96873.75;;;8.41;95.03
76478;BME280;65309;49.790;18.972;2023-05-07T03:41:59;96874.00;;;8.52;95.40
76478;BME280;65309;49.790;18.972;2023-05-07T03:47:01;96875.72;;;8.22;96.91
76478;BME280;65309;49.790;18.972;2023-05-07T03:52:03;96873.13;;;8.28;95.93
76478;BME280;65309;49.790;18.972;2023-05-07T03:57:07;96880.78;;;8.33;96.15
76478;BME280;65309;49.790;18.972;2023-05-07T04:02:09;96890.75;;;8.30;96.70
76478;BME280;65309;49.790;18.972;2023-05-07T04:07:11;96897.63;;;8.35;96.53
76478;BME280;65309;49.790;18.972;2023-05-07T04:12:14;96898.84;;;8.43;95.13
76478;BME280;65309;49.790;18.972;2023-05-07T04:17:16;96897.16;;;8.27;96.37
76478;BME280;65309;49.790;18.972;2023-05-07T04:22:18;96903.44;;;8.46;94.80
76478;BME280;65309;49.790;18.972;2023-05-07T04:27:21;96908.63;;;8.44;94.83
76478;BME280;65309;49.790;18.972;2023-05-07T04:32:23;96916.63;;;8.33;95.74
76478;BME280;65309;49.790;18.972;2023-05-07T04:37:26;96923.50;;;8.38;95.94
76478;BME280;65309;49.790;18.972;2023-05-07T04:42:30;96930.84;;;8.31;96.19
76478;BME280;65309;49.790;18.972;2023-05-07T04:47:32;96939.44;;;8.34;96.21
76478;BME280;65309;49.790;18.972;2023-05-07T04:52:35;96940.50;;;8.36;95.96
76478;BME280;65309;49.790;18.972;2023-05-07T04:57:38;96951.84;;;8.47;95.74
76478;BME280;65309;49.790;18.972;2023-05-07T05:02:42;96943.09;;;8.40;96.07
76478;BME280;65309;49.790;18.972;2023-05-07T05:07:44;96954.72;;;8.44;95.90
76478;BME280;65309;49.790;18.972;2023-05-07T05:12:47;96959.50;;;8.34;95.69
76478;BME280;65309;49.790;18.972;2023-05-07T05:17:49;96966.06;;;8.37;95.34
76478;BME280;65309;49.790;18.972;2023-05-07T05:22:51;96967.13;;;8.39;95.52
76478;BME280;65309;49.790;18.972;2023-05-07T05:27:55;96974.16;;;8.40;95.99
76478;BME280;65309;49.790;18.972;2023-05-07T05:32:57;96977.25;;;8.42;95.27
76478;BME280;65309;49.790;18.972;2023-05-07T05:37:59;96975.06;;;8.28;96.06
76478;BME280;65309;49.790;18.972;2023-05-07T05:43:02;96981.94;;;8.23;95.86
76478;BME280;65309;49.790;18.972;2023-05-07T05:48:05;96980.72;;;8.24;96.05
76478;BME280;65309;49.790;18.972;2023-05-07T05:53:07;96979.19;;;8.23;96.23
76478;BME280;65309;49.790;18.972;2023-05-07T05:58:10;96990.81;;;8.27;95.50
76478;BME280;65309;49.790;18.972;2023-05-07T06:03:12;96987.00;;;8.25;96.16
76478;BME280;65309;49.790;18.972;2023-05-07T06:08:15;96991.94;;;8.30;95.47
76478;BME280;65309;49.790;18.972;2023-05-07T06:13:18;96982.56;;;8.18;96.08
76478;BME280;65309;49.790;18.972;2023-05-07T06:18:21;96994.94;;;8.23;95.94
76478;BME280;65309;49.790;18.972;2023-05-07T06:23:23;97001.69;;;8.13;97.02
76478;BME280;65309;49.790;18.972;2023-05-07T06:28:27;97000.75;;;8.07;97.22
76478;BME280;65309;49.790;18.972;2023-05-07T06:33:29;97002.44;;;8.04;96.95
76478;BME280;65309;49.790;18.972;2023-05-07T06:38:31;97013.00;;;8.06;96.38
76478;BME280;65309;49.790;18.972;2023-05-07T06:43:35;97006.25;;;8.07;96.06
76478;BME280;65309;49.790;18.972;2023-05-07T06:48:37;97012.09;;;8.09;97.80
76478;BME280;65309;49.790;18.972;2023-05-07T06:53:39;97008.72;;;8.05;98.48
76478;BME280;65309;49.790;18.972;2023-05-07T06:58:43;97016.03;;;7.90;100.00
76478;BME280;65309;49.790;18.972;2023-05-07T07:03:45;97027.47;;;7.79;100.00
76478;BME280;65309;49.790;18.972;2023-05-07T07:08:47;97030.69;;;7.77;100.00
76478;BME280;65309;49.790;18.972;2023-05-07T07:13:50;97038.91;;;7.68;100.00
76478;BME280;65309;49.790;18.972;2023-05-07T07:18:52;97046.41;;;7.68;100.00
76478;BME280;65309;49.790;18.972;2023-05-07T07:23:54;97041.75;;;7.56;100.00
76478;BME280;65309;49.790;18.972;2023-05-07T07:28:58;97053.53;;;7.56;100.00
76478;BME280;65309;49.790;18.972;2023-05-07T07:34:00;97050.78;;;7.56;100.00
76478;BME280;65309;49.790;18.972;2023-05-07T07:39:02;97052.59;;;7.50;100.00
76478;BME280;65309;49.790;18.972;2023-05-07T07:44:05;97071.09;;;7.50;100.00
76478;BME280;65309;49.790;18.972;2023-05-07T07:49:09;97070.19;;;7.53;100.00
76478;BME280;65309;49.790;18.972;2023-05-07T07:54:11;97068.06;;;7.57;100.00
76478;BME280;65309;49.790;18.972;2023-05-07T07:59:15;97071.19;;;7.68;100.00
76478;BME280;65309;49.790;18.972;2023-05-07T08:04:20;97075.97;;;7.46;100.00
76478;BME280;65309;49.790;18.972;2023-05-07T08:09:22;97088.78;;;7.39;100.00
76478;BME280;65309;49.790;18.972;2023-05-07T08:14:26;97098.66;;;7.28;100.00
76478;BME280;65309;49.790;18.972;2023-05-07T08:19:29;97102.81;;;7.32;100.00
76478;BME280;65309;49.790;18.972;2023-05-07T08:24:32;97105.06;;;7.25;100.00
76478;BME280;65309;49.790;18.972;2023-05-07T08:29:35;97105.81;;;7.25;100.00
76478;BME280;65309;49.790;18.972;2023-05-07T08:34:37;97120.16;;;6.99;100.00
76478;BME280;65309;49.790;18.972;2023-05-07T08:39:39;97116.31;;;7.18;100.00
76478;BME280;65309;49.790;18.972;2023-05-07T08:44:45;97121.19;;;7.14;100.00
76478;BME280;65309;49.790;18.972;2023-05-07T08:49:48;97126.59;;;7.26;99.89
76478;BME280;65309;49.790;18.972;2023-05-07T08:54:52;97136.25;;;7.31;99.30
76478;BME280;65309;49.790;18.972;2023-05-07T08:59:55;97143.31;;;6.88;99.95
76478;BME280;65309;49.790;18.972;2023-05-07T09:04:58;97146.19;;;6.72;100.00
76478;BME280;65309;49.790;18.972;2023-05-07T09:10:01;97154.31;;;6.88;100.00
76478;BME280;65309;49.790;18.972;2023-05-07T09:15:05;97158.94;;;7.13;99.63
76478;BME280;65309;49.790;18.972;2023-05-07T09:20:08;97156.34;;;7.19;97.77
76478;BME280;65309;49.790;18.972;2023-05-07T09:25:12;97166.59;;;6.97;98.56
76478;BME280;65309;49.790;18.972;2023-05-07T09:30:16;97172.31;;;6.89;100.00
76478;BME280;65309;49.790;18.972;2023-05-07T09:35:18;97176.03;;;6.96;100.00
76478;BME280;65309;49.790;18.972;2023-05-07T09:40:21;97178.28;;;7.10;98.57
76478;BME280;65309;49.790;18.972;2023-05-07T09:45:26;97178.78;;;6.96;98.23
76478;BME280;65309;49.790;18.972;2023-05-07T09:50:29;97182.25;;;7.09;96.50
76478;BME280;65309;49.790;18.972;2023-05-07T09:55:32;97186.31;;;7.17;95.94
76478;BME280;65309;49.790;18.972;2023-05-07T10:00:37;97188.34;;;7.25;95.54
76478;BME280;65309;49.790;18.972;2023-05-07T10:05:42;97200.56;;;7.24;95.48
76478;BME280;65309;49.790;18.972;2023-05-07T10:10:46;97204.22;;;7.21;95.54
76478;BME280;65309;49.790;18.972;2023-05-07T10:15:50;97204.47;;;7.36;94.20
76478;BME280;65309;49.790;18.972;2023-05-07T10:20:54;97209.59;;;7.25;94.71
76478;BME280;65309;49.790;18.972;2023-05-07T10:25:56;97213.69;;;7.20;95.48
76478;BME280;65309;49.790;18.972;2023-05-07T10:31:15;97209.84;;;7.18;95.75
76478;BME280;65309;49.790;18.972;2023-05-07T10:36:22;97226.94;;;7.00;97.17
76478;BME280;65309;49.790;18.972;2023-05-07T10:41:24;97225.97;;;7.28;96.65
76478;BME280;65309;49.790;18.972;2023-05-07T10:46:27;97224.69;;;7.20;95.35
76478;BME280;65309;49.790;18.972;2023-05-07T10:51:31;97224.81;;;7.17;96.32
76478;BME280;65309;49.790;18.972;2023-05-07T10:56:34;97226.66;;;7.20;96.89
76478;BME280;65309;49.790;18.972;2023-05-07T11:01:52;97232.56;;;6.97;96.87
76478;BME280;65309;49.790;18.972;2023-05-07T11:07:26;97230.91;;;6.99;97.34
76478;BME280;65309;49.790;18.972;2023-05-07T11:12:47;97232.53;;;7.09;97.53
76478;BME280;65309;49.790;18.972;2023-05-07T11:17:56;97229.94;;;7.27;95.34
76478;BME280;65309;49.790;18.972;2023-05-07T11:22:58;97231.34;;;7.32;95.32
76478;BME280;65309;49.790;18.972;2023-05-07T11:28:05;97238.31;;;7.24;95.26
76478;BME280;65309;49.790;18.972;2023-05-07T11:33:08;97242.59;;;7.25;95.99
76478;BME280;65309;49.790;18.972;2023-05-07T11:38:11;97251.50;;;6.94;97.72
76478;BME280;65309;49.790;18.972;2023-05-07T11:43:13;97251.03;;;7.09;98.77
76478;BME280;65309;49.790;18.972;2023-05-07T11:48:17;97250.13;;;7.12;95.66
76478;BME280;65309;49.790;18.972;2023-05-07T11:53:19;97252.38;;;6.91;97.02
76478;BME280;65309;49.790;18.972;2023-05-07T11:58:24;97257.44;;;7.27;95.55
76478;BME280;65309;49.790;18.972;2023-05-07T12:03:28;97256.75;;;7.02;93.95
76478;BME280;65309;49.790;18.972;2023-05-07T12:08:37;97271.13;;;6.71;97.52
76478;BME280;65309;49.790;18.972;2023-05-07T12:13:40;97260.56;;;6.57;97.98
76478;BME280;65309;49.790;18.972;2023-05-07T12:18:45;97264.97;;;6.42;99.25
76478;BME280;65309;49.790;18.972;2023-05-07T12:23:47;97275.28;;;6.63;97.61
76478;BME280;65309;49.790;18.972;2023-05-07T12:28:49;97276.16;;;6.60;96.96
76478;BME280;65309;49.790;18.972;2023-05-07T12:33:53;97280.78;;;6.63;96.53
76478;BME280;65309;49.790;18.972;2023-05-07T12:38:55;97291.91;;;6.47;97.97
76478;BME280;65309;49.790;18.972;2023-05-07T12:43:57;97279.13;;;6.40;97.81
76478;BME280;65309;49.790;18.972;2023-05-07T12:49:00;97292.00;;;6.56;97.24
76478;BME280;65309;49.790;18.972;2023-05-07T12:54:02;97295.06;;;6.83;96.52
76478;BME280;65309;49.790;18.972;2023-05-07T12:59:05;97286.56;;;6.90;94.11
76478;BME280;65309;49.790;18.972;2023-05-07T13:04:08;97288.44;;;6.93;93.81
76478;BME280;65309;49.790;18.972;2023-05-07T13:09:10;97294.06;;;6.65;95.09
76478;BME280;65309;49.790;18.972;2023-05-07T13:14:12;97298.91;;;6.61;95.79
76478;BME280;65309;49.790;18.972;2023-05-07T13:19:15;97292.22;;;6.74;95.83
76478;BME280;65309;49.790;18.972;2023-05-07T13:24:17;97297.06;;;6.45;96.18
76478;BME280;65309;49.790;18.972;2023-05-07T13:29:20;97301.91;;;6.54;94.52
76478;BME280;65309;49.790;18.972;2023-05-07T13:34:24;97290.66;;;6.48;96.11
76478;BME280;65309;49.790;18.972;2023-05-07T13:39:26;97292.66;;;6.47;96.33
76478;BME280;65309;49.790;18.972;2023-05-07T13:44:28;97297.03;;;6.20;97.97
76478;BME280;65309;49.790;18.972;2023-05-07T13:49:31;97300.97;;;6.19;98.76
76478;BME280;65309;49.790;18.972;2023-05-07T13:54:33;97295.19;;;6.29;97.75
76478;BME280;65309;49.790;18.972;2023-05-07T13:59:35;97292.75;;;6.31;97.87
76478;BME280;65309;49.790;18.972;2023-05-07T14:04:38;97305.81;;;6.27;97.45
76478;BME280;65309;49.790;18.972;2023-05-07T14:09:42;97305.94;;;6.24;97.01
76478;BME280;65309;49.790;18.972;2023-05-07T14:14:47;97310.19;;;6.12;96.74
76478;BME280;65309;49.790;18.972;2023-05-07T14:19:50;97310.31;;;6.09;96.07
76478;BME280;65309;49.790;18.972;2023-05-07T14:24:52;97317.03;;;6.33;95.75
76478;BME280;65309;49.790;18.972;2023-05-07T14:30:08;97323.28;;;6.21;94.53
76478;BME280;65309;49.790;18.972;2023-05-07T14:35:15;97331.41;;;6.12;94.58
76478;BME280;65309;49.790;18.972;2023-05-07T14:40:17;97331.03;;;6.38;94.61
76478;BME280;65309;49.790;18.972;2023-05-07T14:45:21;97332.09;;;6.41;93.33
76478;BME280;65309;49.790;18.972;2023-05-07T14:50:24;97334.97;;;6.37;92.76
76478;BME280;65309;49.790;18.972;2023-05-07T14:55:26;97337.47;;;6.32;94.37
76478;BME280;65309;49.790;18.972;2023-05-07T15:00:28;97336.69;;;6.31;92.64
76478;BME280;65309;49.790;18.972;2023-05-07T15:05:32;97340.66;;;6.18;94.54
76478;BME280;65309;49.790;18.972;2023-05-07T15:10:36;97334.06;;;6.28;92.76
76478;BME280;65309;49.790;18.972;2023-05-07T15:15:42;97349.31;;;6.16;93.31
76478;BME280;65309;49.790;18.972;2023-05-07T15:20:49;97356.50;;;5.97;93.56
76478;BME280;65309;49.790;18.972;2023-05-07T15:25:51;97364.53;;;5.92;94.39
76478;BME280;65309;49.790;18.972;2023-05-07T15:30:54;97366.50;;;5.75;93.61
76478;BME280;65309;49.790;18.972;2023-05-07T15:35:58;97370.09;;;5.88;92.10
76478;BME280;65309;49.790;18.972;2023-05-07T15:41:00;97367.00;;;5.86;91.61
76478;BME280;65309;49.790;18.972;2023-05-07T15:46:02;97366.28;;;5.98;92.70
76478;BME280;65309;49.790;18.972;2023-05-07T15:51:06;97373.66;;;6.01;92.57
76478;BME280;65309;49.790;18.972;2023-05-07T15:56:09;97370.56;;;5.99;91.69
76478;BME280;65309;49.790;18.972;2023-05-07T16:01:12;97364.00;;;6.10;92.94
76478;BME280;65309;49.790;18.972;2023-05-07T16:06:15;97366.06;;;6.06;92.62
76478;BME280;65309;49.790;18.972;2023-05-07T16:11:17;97371.50;;;6.09;92.16
76478;BME280;65309;49.790;18.972;2023-05-07T16:16:19;97371.00;;;5.98;91.92
76478;BME280;65309;49.790;18.972;2023-05-07T16:21:23;97368.75;;;6.09;91.67
76478;BME280;65309;49.790;18.972;2023-05-07T16:26:25;97384.56;;;6.05;91.99
76478;BME280;65309;49.790;18.972;2023-05-07T16:31:27;97372.13;;;6.00;91.15
76478;BME280;65309;49.790;18.972;2023-05-07T16:36:31;97378.69;;;5.74;90.99
76478;BME280;65309;49.790;18.972;2023-05-07T16:41:33;97367.56;;;5.65;92.31
76478;BME280;65309;49.790;18.972;2023-05-07T16:46:35;97375.59;;;5.72;92.14
76478;BME280;65309;49.790;18.972;2023-05-07T16:51:38;97374.59;;;5.66;92.03
76478;BME280;65309;49.790;18.972;2023-05-07T16:56:44;97367.94;;;5.51;92.52
76478;BME280;65309;49.790;18.972;2023-05-07T17:01:46;97380.94;;;5.63;91.87
76478;BME280;65309;49.790;18.972;2023-05-07T17:06:49;97382.09;;;5.78;90.82
76478;BME280;65309;49.790;18.972;2023-05-07T17:11:51;97382.72;;;5.70;92.81
76478;BME280;65309;49.790;18.972;2023-05-07T17:16:53;97386.03;;;5.77;92.26
76478;BME280;65309;49.790;18.972;2023-05-07T17:21:56;97385.66;;;5.63;91.89
76478;BME280;65309;49.790;18.972;2023-05-07T17:26:58;97388.91;;;5.57;92.77
76478;BME280;65309;49.790;18.972;2023-05-07T17:32:01;97402.38;;;5.52;92.96
76478;BME280;65309;49.790;18.972;2023-05-07T17:37:04;97402.88;;;5.47;93.58
76478;BME280;65309;49.790;18.972;2023-05-07T17:42:07;97400.66;;;5.58;93.21
76478;BME280;65309;49.790;18.972;2023-05-07T17:47:09;97407.34;;;5.57;93.45
76478;BME280;65309;49.790;18.972;2023-05-07T17:52:12;97411.22;;;5.43;93.41
76478;BME280;65309;49.790;18.972;2023-05-07T17:57:14;97421.88;;;5.25;94.54
76478;BME280;65309;49.790;18.972;2023-05-07T18:02:16;97416.19;;;5.32;95.16
76478;BME280;65309;49.790;18.972;2023-05-07T18:07:19;97413.88;;;5.15;94.85
76478;BME280;65309;49.790;18.972;2023-05-07T18:12:21;97410.34;;;5.14;96.38
76478;BME280;65309;49.790;18.972;2023-05-07T18:17:26;97419.94;;;5.06;95.96
76478;BME280;65309;49.790;18.972;2023-05-07T18:22:30;97412.94;;;5.05;96.14
76478;BME280;65309;49.790;18.972;2023-05-07T18:27:32;97425.00;;;5.07;95.56
76478;BME280;65309;49.790;18.972;2023-05-07T18:32:34;97430.09;;;5.09;95.19
76478;BME280;65309;49.790;18.972;2023-05-07T18:37:37;97423.81;;;5.08;95.88
76478;BME280;65309;49.790;18.972;2023-05-07T18:42:39;97420.22;;;5.12;95.62
76478;BME280;65309;49.790;18.972;2023-05-07T18:47:41;97437.00;;;5.14;94.00
76478;BME280;65309;49.790;18.972;2023-05-07T18:52:45;97438.72;;;5.24;94.04
76478;BME280;65309;49.790;18.972;2023-05-07T18:57:47;97444.31;;;5.20;94.38
76478;BME280;65309;49.790;18.972;2023-05-07T19:02:49;97440.28;;;5.08;95.12
76478;BME280;65309;49.790;18.972;2023-05-07T19:07:53;97446.69;;;5.18;93.79
76478;BME280;65309;49.790;18.972;2023-05-07T19:12:55;97444.91;;;5.28;93.23
76478;BME280;65309;49.790;18.972;2023-05-07T19:17:58;97441.22;;;5.18;94.45
76478;BME280;65309;49.790;18.972;2023-05-07T19:23:01;97452.75;;;5.09;94.76
76478;BME280;65309;49.790;18.972;2023-05-07T19:28:03;97454.81;;;5.05;94.88
76478;BME280;65309;49.790;18.972;2023-05-07T19:33:05;97457.63;;;5.02;94.17
76478;BME280;65309;49.790;18.972;2023-05-07T19:38:09;97467.81;;;5.01;95.72
76478;BME280;65309;49.790;18.972;2023-05-07T19:43:11;97470.94;;;5.03;95.04
76478;BME280;65309;49.790;18.972;2023-05-07T19:48:13;97471.78;;;5.00;94.07
76478;BME280;65309;49.790;18.972;2023-05-07T19:53:17;97480.63;;;5.08;93.88
76478;BME280;65309;49.790;18.972;2023-05-07T19:58:19;97470.75;;;5.10;92.09
76478;BME280;65309;49.790;18.972;2023-05-07T20:03:22;97469.84;;;5.17;90.65
76478;BME280;65309;49.790;18.972;2023-05-07T20:08:26;97468.88;;;5.07;89.90
76478;BME280;65309;49.790;18.972;2023-05-07T20:13:27;97470.06;;;5.06;91.04
76478;BME280;65309;49.790;18.972;2023-05-07T20:18:30;97473.16;;;5.08;90.28
76478;BME280;65309;49.790;18.972;2023-05-07T20:23:33;97472.63;;;4.97;91.56
76478;BME280;65309;49.790;18.972;2023-05-07T20:28:35;97472.41;;;5.08;90.03
76478;BME280;65309;49.790;18.972;2023-05-07T20:33:37;97480.34;;;5.02;90.26
76478;BME280;65309;49.790;18.972;2023-05-07T20:38:43;97482.81;;;4.97;91.34
76478;BME280;65309;49.790;18.972;2023-05-07T20:43:45;97505.50;;;4.97;91.90
76478;BME280;65309;49.790;18.972;2023-05-07T20:48:47;97491.88;;;4.94;93.15
76478;BME280;65309;49.790;18.972;2023-05-07T20:53:50;97493.84;;;4.93;93.29
76478;BME280;65309;49.790;18.972;2023-05-07T20:58:52;97499.19;;;5.00;91.28
76478;BME280;65309;49.790;18.972;2023-05-07T21:03:54;97509.31;;;5.03;90.63
76478;BME280;65309;49.790;18.972;2023-05-07T21:08:58;97508.81;;;5.08;89.72
76478;BME280;65309;49.790;18.972;2023-05-07T21:13:59;97503.13;;;4.99;90.37
76478;BME280;65309;49.790;18.972;2023-05-07T21:19:02;97503.75;;;5.07;90.64
76478;BME280;65309;49.790;18.972;2023-05-07T21:24:06;97504.97;;;4.86;92.79
76478;BME280;65309;49.790;18.972;2023-05-07T21:29:08;97505.66;;;4.90;93.01
76478;BME280;65309;49.790;18.972;2023-05-07T21:34:10;97506.38;;;4.94;92.55
76478;BME280;65309;49.790;18.972;2023-05-07T21:39:14;97505.94;;;4.96;92.78
76478;BME280;65309;49.790;18.972;2023-05-07T21:44:16;97512.13;;;4.80;92.64
76478;BME280;65309;49.790;18.972;2023-05-07T21:49:18;97519.03;;;4.88;92.34
76478;BME280;65309;49.790;18.972;2023-05-07T21:54:21;97521.97;;;4.78;92.53
76478;BME280;65309;49.790;18.972;2023-05-07T21:59:23;97534.75;;;4.84;91.10
76478;BME280;65309;49.790;18.972;2023-05-07T22:04:25;97527.25;;;4.88;90.88
76478;BME280;65309;49.790;18.972;2023-05-07T22:09:29;97525.91;;;4.96;90.01
76478;BME280;65309;49.790;18.972;2023-05-07T22:14:31;97523.22;;;4.93;89.96
76478;BME280;65309;49.790;18.972;2023-05-07T22:19:33;97525.34;;;5.05;91.18
76478;BME280;65309;49.790;18.972;2023-05-07T22:24:36;97519.50;;;5.03;91.20
76478;BME280;65309;49.790;18.972;2023-05-07T22:29:38;97511.50;;;4.73;93.98
76478;BME280;65309;49.790;18.972;2023-05-07T22:34:40;97512.28;;;4.73;91.73
76478;BME280;65309;49.790;18.972;2023-05-07T22:39:44;97510.16;;;4.81;90.46
76478;BME280;65309;49.790;18.972;2023-05-07T22:44:46;97514.31;;;4.69;91.01
76478;BME280;65309;49.790;18.972;2023-05-07T22:49:48;97502.09;;;4.74;91.02
76478;BME280;65309;49.790;18.972;2023-05-07T22:54:51;97508.00;;;4.72;90.16
76478;BME280;65309;49.790;18.972;2023-05-07T22:59:54;97502.19;;;4.70;91.13
76478;BME280;65309;49.790;18.972;2023-05-07T23:04:57;97506.09;;;4.69;91.38
76478;BME280;65309;49.790;18.972;2023-05-07T23:10:01;97517.06;;;4.69;90.55
76478;BME280;65309;49.790;18.972;2023-05-07T23:15:03;97512.28;;;4.73;90.34
76478;BME280;65309;49.790;18.972;2023-05-07T23:20:06;97504.34;;;4.79;90.01
76478;BME280;65309;49.790;18.972;2023-05-07T23:25:10;97493.09;;;4.73;88.94
76478;BME280;65309;49.790;18.972;2023-05-07T23:30:13;97499.66;;;4.79;88.44
76478;BME280;65309;49.790;18.972;2023-05-07T23:35:15;97484.13;;;4.73;88.82
76478;BME280;65309;49.790;18.972;2023-05-07T23:40:19;97485.50;;;4.81;88.87
76478;BME280;65309;49.790;18.972;2023-05-07T23:45:21;97494.28;;;4.72;88.57
76478;BME280;65309;49.790;18.972;2023-05-07T23:50:23;97487.72;;;4.70;88.78
76478;BME280;65309;49.790;18.972;2023-05-07T23:55:26;97489.25;;;4.71;88.72
